sensor_id;sensor_type;location;lat;lon;timestamp;temperature;humidity
65419;DHT22;52027;50.658;14.004;2022-09-09T00:00:11;25.54;49.71
65419;DHT22;52027;50.658;14.004;2022-09-09T00:02:37;25.54;49.64
65419;DHT22;52027;50.658;14.004;2022-09-09T00:05:19;25.53;49.73
65419;DHT22;52027;50.658;14.004;2022-09-09T00:07:51;25.50;49.71
65419;DHT22;52027;50.658;14.004;2022-09-09T00:10:29;25.51;49.54
65419;DHT22;52027;50.658;14.004;2022-09-09T00:13:34;25.50;49.68
65419;DHT22;52027;50.658;14.004;2022-09-09T00:16:15;25.49;49.78
65419;DHT22;52027;50.658;14.004;2022-09-09T00:21:39;25.50;49.76
65419;DHT22;52027;50.658;14.004;2022-09-09T00:24:23;25.47;49.68
65419;DHT22;52027;50.658;14.004;2022-09-09T00:26:54;25.49;49.68
65419;DHT22;52027;50.658;14.004;2022-09-09T00:32:16;25.45;49.70
65419;DHT22;52027;50.658;14.004;2022-09-09T00:34:52;25.45;49.87
65419;DHT22;52027;50.658;14.004;2022-09-09T00:37:20;25.46;49.83
65419;DHT22;52027;50.658;14.004;2022-09-09T00:39:48;25.47;49.76
65419;DHT22;52027;50.658;14.004;2022-09-09T00:42:24;25.45;49.56
65419;DHT22;52027;50.658;14.004;2022-09-09T00:47:44;25.47;49.66
65419;DHT22;52027;50.658;14.004;2022-09-09T00:50:34;25.46;49.62
65419;DHT22;52027;50.658;14.004;2022-09-09T00:55:48;25.43;49.61
65419;DHT22;52027;50.658;14.004;2022-09-09T00:58:17;25.46;49.69
65419;DHT22;52027;50.658;14.004;2022-09-09T01:06:33;25.42;49.62
65419;DHT22;52027;50.658;14.004;2022-09-09T01:09:07;25.43;49.65
65419;DHT22;52027;50.658;14.004;2022-09-09T01:12:10;25.43;49.62
65419;DHT22;52027;50.658;14.004;2022-09-09T01:17:11;25.42;49.70
65419;DHT22;52027;50.658;14.004;2022-09-09T01:19:45;25.43;49.73
65419;DHT22;52027;50.658;14.004;2022-09-09T01:25:20;25.40;49.54
65419;DHT22;52027;50.658;14.004;2022-09-09T01:27:51;25.40;49.78
65419;DHT22;52027;50.658;14.004;2022-09-09T01:30:19;25.40;49.74
65419;DHT22;52027;50.658;14.004;2022-09-09T01:32:51;25.40;49.71
65419;DHT22;52027;50.658;14.004;2022-09-09T01:35:44;25.38;49.70
65419;DHT22;52027;50.658;14.004;2022-09-09T01:38:12;25.40;49.72
65419;DHT22;52027;50.658;14.004;2022-09-09T01:40:38;25.38;49.76
65419;DHT22;52027;50.658;14.004;2022-09-09T01:43:04;25.40;49.50
65419;DHT22;52027;50.658;14.004;2022-09-09T01:45:30;25.38;49.45
65419;DHT22;52027;50.658;14.004;2022-09-09T01:47:55;25.38;49.53
65419;DHT22;52027;50.658;14.004;2022-09-09T01:50:21;25.38;49.50
65419;DHT22;52027;50.658;14.004;2022-09-09T01:52:50;25.38;49.52
65419;DHT22;52027;50.658;14.004;2022-09-09T01:55:29;25.36;49.41
65419;DHT22;52027;50.658;14.004;2022-09-09T02:00:33;25.36;49.53
65419;DHT22;52027;50.658;14.004;2022-09-09T02:05:39;25.35;49.54
65419;DHT22;52027;50.658;14.004;2022-09-09T02:08:15;25.35;49.47
65419;DHT22;52027;50.658;14.004;2022-09-09T02:10:53;25.33;49.63
65419;DHT22;52027;50.658;14.004;2022-09-09T02:13:21;25.36;49.73
65419;DHT22;52027;50.658;14.004;2022-09-09T02:15:53;25.33;49.74
65419;DHT22;52027;50.658;14.004;2022-09-09T02:18:26;25.32;49.80
65419;DHT22;52027;50.658;14.004;2022-09-09T02:20:53;25.32;49.84
65419;DHT22;52027;50.658;14.004;2022-09-09T02:23:19;25.32;49.78
65419;DHT22;52027;50.658;14.004;2022-09-09T02:25:45;25.32;49.58
65419;DHT22;52027;50.658;14.004;2022-09-09T02:28:13;25.33;49.59
65419;DHT22;52027;50.658;14.004;2022-09-09T02:30:41;25.30;49.70
65419;DHT22;52027;50.658;14.004;2022-09-09T02:33:08;25.32;49.66
65419;DHT22;52027;50.658;14.004;2022-09-09T02:35:38;25.32;49.63
65419;DHT22;52027;50.658;14.004;2022-09-09T02:38:08;25.30;49.62
65419;DHT22;52027;50.658;14.004;2022-09-09T02:40:35;25.29;49.51
65419;DHT22;52027;50.658;14.004;2022-09-09T02:43:01;25.30;49.33
65419;DHT22;52027;50.658;14.004;2022-09-09T02:45:34;25.29;49.34
65419;DHT22;52027;50.658;14.004;2022-09-09T02:50:35;25.29;49.63
65419;DHT22;52027;50.658;14.004;2022-09-09T02:58:14;25.28;49.72
65419;DHT22;52027;50.658;14.004;2022-09-09T03:00:48;25.26;49.60
65419;DHT22;52027;50.658;14.004;2022-09-09T03:03:15;25.26;49.61
65419;DHT22;52027;50.658;14.004;2022-09-09T03:05:42;25.25;49.59
65419;DHT22;52027;50.658;14.004;2022-09-09T03:08:07;25.26;49.62
65419;DHT22;52027;50.658;14.004;2022-09-09T03:10:33;25.25;49.66
65419;DHT22;52027;50.658;14.004;2022-09-09T03:12:59;25.25;49.55
65419;DHT22;52027;50.658;14.004;2022-09-09T03:15:25;25.23;49.45
65419;DHT22;52027;50.658;14.004;2022-09-09T03:17:54;25.26;49.69
65419;DHT22;52027;50.658;14.004;2022-09-09T03:20:20;25.23;49.74
65419;DHT22;52027;50.658;14.004;2022-09-09T03:22:45;25.25;49.68
65419;DHT22;52027;50.658;14.004;2022-09-09T03:25:10;25.23;49.59
65419;DHT22;52027;50.658;14.004;2022-09-09T03:27:36;25.23;49.39
65419;DHT22;52027;50.658;14.004;2022-09-09T03:30:01;25.22;49.49
65419;DHT22;52027;50.658;14.004;2022-09-09T03:32:29;25.20;49.43
65419;DHT22;52027;50.658;14.004;2022-09-09T03:34:55;25.22;49.56
65419;DHT22;52027;50.658;14.004;2022-09-09T03:37:21;25.23;49.41
65419;DHT22;52027;50.658;14.004;2022-09-09T03:39:48;25.20;49.42
65419;DHT22;52027;50.658;14.004;2022-09-09T03:42:13;25.18;49.54
65419;DHT22;52027;50.658;14.004;2022-09-09T03:44:40;25.20;49.51
65419;DHT22;52027;50.658;14.004;2022-09-09T03:47:05;25.19;49.62
65419;DHT22;52027;50.658;14.004;2022-09-09T03:49:31;25.22;49.61
65419;DHT22;52027;50.658;14.004;2022-09-09T03:51:56;25.19;49.49
65419;DHT22;52027;50.658;14.004;2022-09-09T03:54:24;25.20;49.71
65419;DHT22;52027;50.658;14.004;2022-09-09T03:56:49;25.19;49.76
65419;DHT22;52027;50.658;14.004;2022-09-09T03:59:15;25.18;49.76
65419;DHT22;52027;50.658;14.004;2022-09-09T04:01:41;25.22;49.74
65419;DHT22;52027;50.658;14.004;2022-09-09T04:04:06;25.19;49.76
65419;DHT22;52027;50.658;14.004;2022-09-09T04:06:32;25.20;49.87
65419;DHT22;52027;50.658;14.004;2022-09-09T04:08:58;25.18;50.03
65419;DHT22;52027;50.658;14.004;2022-09-09T04:11:23;25.20;49.91
65419;DHT22;52027;50.658;14.004;2022-09-09T04:13:48;25.20;49.86
65419;DHT22;52027;50.658;14.004;2022-09-09T04:16:14;25.16;49.78
65419;DHT22;52027;50.658;14.004;2022-09-09T04:18:40;25.19;49.77
65419;DHT22;52027;50.658;14.004;2022-09-09T04:21:05;25.19;49.80
65419;DHT22;52027;50.658;14.004;2022-09-09T04:23:32;25.18;49.84
65419;DHT22;52027;50.658;14.004;2022-09-09T04:25:59;25.19;49.57
65419;DHT22;52027;50.658;14.004;2022-09-09T04:28:27;25.18;49.49
65419;DHT22;52027;50.658;14.004;2022-09-09T04:30:53;25.19;49.49
65419;DHT22;52027;50.658;14.004;2022-09-09T04:33:19;25.16;49.64
65419;DHT22;52027;50.658;14.004;2022-09-09T04:35:49;25.15;49.66
65419;DHT22;52027;50.658;14.004;2022-09-09T04:38:16;25.19;49.80
65419;DHT22;52027;50.658;14.004;2022-09-09T04:40:43;25.16;49.71
65419;DHT22;52027;50.658;14.004;2022-09-09T04:43:09;25.15;49.73
65419;DHT22;52027;50.658;14.004;2022-09-09T04:45:47;25.15;49.84
65419;DHT22;52027;50.658;14.004;2022-09-09T04:48:12;25.14;49.78
65419;DHT22;52027;50.658;14.004;2022-09-09T04:50:38;25.15;49.66
65419;DHT22;52027;50.658;14.004;2022-09-09T04:53:05;25.15;49.88
65419;DHT22;52027;50.658;14.004;2022-09-09T04:55:32;25.15;49.96
65419;DHT22;52027;50.658;14.004;2022-09-09T04:58:03;25.14;49.70
65419;DHT22;52027;50.658;14.004;2022-09-09T05:00:29;25.14;49.65
65419;DHT22;52027;50.658;14.004;2022-09-09T05:02:54;25.14;49.65
65419;DHT22;52027;50.658;14.004;2022-09-09T05:05:19;25.15;49.65
65419;DHT22;52027;50.658;14.004;2022-09-09T05:07:46;25.11;49.60
65419;DHT22;52027;50.658;14.004;2022-09-09T05:10:13;25.14;49.62
65419;DHT22;52027;50.658;14.004;2022-09-09T05:12:38;25.12;49.56
65419;DHT22;52027;50.658;14.004;2022-09-09T05:15:04;25.12;49.62
65419;DHT22;52027;50.658;14.004;2022-09-09T05:17:30;25.09;49.47
65419;DHT22;52027;50.658;14.004;2022-09-09T05:19:55;25.09;49.55
65419;DHT22;52027;50.658;14.004;2022-09-09T05:22:20;25.09;49.45
65419;DHT22;52027;50.658;14.004;2022-09-09T05:24:48;25.11;49.30
65419;DHT22;52027;50.658;14.004;2022-09-09T05:27:16;25.05;49.32
65419;DHT22;52027;50.658;14.004;2022-09-09T05:29:43;25.05;49.50
65419;DHT22;52027;50.658;14.004;2022-09-09T05:32:09;25.01;49.57
65419;DHT22;52027;50.658;14.004;2022-09-09T05:34:35;24.98;49.63
65419;DHT22;52027;50.658;14.004;2022-09-09T05:37:01;24.96;49.80
65419;DHT22;52027;50.658;14.004;2022-09-09T05:39:27;24.94;49.81
65419;DHT22;52027;50.658;14.004;2022-09-09T05:41:52;24.92;49.79
65419;DHT22;52027;50.658;14.004;2022-09-09T05:44:17;24.88;49.52
65419;DHT22;52027;50.658;14.004;2022-09-09T05:46:44;24.91;49.45
65419;DHT22;52027;50.658;14.004;2022-09-09T05:49:09;24.87;49.57
65419;DHT22;52027;50.658;14.004;2022-09-09T05:51:35;24.90;49.53
65419;DHT22;52027;50.658;14.004;2022-09-09T05:54:00;24.85;49.53
65419;DHT22;52027;50.658;14.004;2022-09-09T05:56:27;24.84;49.56
65419;DHT22;52027;50.658;14.004;2022-09-09T05:58:54;24.85;49.49
65419;DHT22;52027;50.658;14.004;2022-09-09T06:01:22;24.87;49.66
65419;DHT22;52027;50.658;14.004;2022-09-09T06:03:49;24.87;49.69
65419;DHT22;52027;50.658;14.004;2022-09-09T06:06:23;24.90;50.10
65419;DHT22;52027;50.658;14.004;2022-09-09T06:08:54;24.90;50.02
65419;DHT22;52027;50.658;14.004;2022-09-09T06:11:26;24.87;50.01
65419;DHT22;52027;50.658;14.004;2022-09-09T06:13:58;24.91;50.07
65419;DHT22;52027;50.658;14.004;2022-09-09T06:16:31;24.92;50.06
65419;DHT22;52027;50.658;14.004;2022-09-09T06:19:00;24.94;50.27
65419;DHT22;52027;50.658;14.004;2022-09-09T06:21:31;24.95;50.16
65419;DHT22;52027;50.658;14.004;2022-09-09T06:23:58;24.98;50.08
65419;DHT22;52027;50.658;14.004;2022-09-09T06:26:25;24.96;49.94
65419;DHT22;52027;50.658;14.004;2022-09-09T06:28:52;24.96;50.14
65419;DHT22;52027;50.658;14.004;2022-09-09T06:31:20;24.99;50.28
65419;DHT22;52027;50.658;14.004;2022-09-09T06:33:47;24.99;50.39
65419;DHT22;52027;50.658;14.004;2022-09-09T06:36:29;25.02;50.20
65419;DHT22;52027;50.658;14.004;2022-09-09T06:38:55;25.07;50.14
65419;DHT22;52027;50.658;14.004;2022-09-09T06:41:22;25.04;50.27
65419;DHT22;52027;50.658;14.004;2022-09-09T06:43:48;25.07;50.28
65419;DHT22;52027;50.658;14.004;2022-09-09T06:46:19;25.09;50.39
65419;DHT22;52027;50.658;14.004;2022-09-09T06:48:46;25.11;50.23
65419;DHT22;52027;50.658;14.004;2022-09-09T06:51:15;25.14;50.15
65419;DHT22;52027;50.658;14.004;2022-09-09T06:53:42;25.12;49.89
65419;DHT22;52027;50.658;14.004;2022-09-09T06:56:17;25.15;49.33
65419;DHT22;52027;50.658;14.004;2022-09-09T06:58:43;25.12;49.39
65419;DHT22;52027;50.658;14.004;2022-09-09T07:01:12;25.12;49.62
65419;DHT22;52027;50.658;14.004;2022-09-09T07:03:39;25.12;49.52
65419;DHT22;52027;50.658;14.004;2022-09-09T07:06:06;25.14;49.67
65419;DHT22;52027;50.658;14.004;2022-09-09T07:08:33;25.14;49.23
65419;DHT22;52027;50.658;14.004;2022-09-09T07:11:04;25.11;49.07
65419;DHT22;52027;50.658;14.004;2022-09-09T07:13:30;25.11;49.36
65419;DHT22;52027;50.658;14.004;2022-09-09T07:16:06;25.07;49.00
65419;DHT22;52027;50.658;14.004;2022-09-09T07:18:32;25.02;48.85
65419;DHT22;52027;50.658;14.004;2022-09-09T07:20:58;25.01;48.89
65419;DHT22;52027;50.658;14.004;2022-09-09T07:23:24;24.98;49.24
65419;DHT22;52027;50.658;14.004;2022-09-09T07:25:51;25.02;49.26
65419;DHT22;52027;50.658;14.004;2022-09-09T07:28:19;25.02;49.45
65419;DHT22;52027;50.658;14.004;2022-09-09T07:30:59;25.07;49.54
65419;DHT22;52027;50.658;14.004;2022-09-09T07:33:28;25.05;49.08
65419;DHT22;52027;50.658;14.004;2022-09-09T07:36:09;25.08;49.30
65419;DHT22;52027;50.658;14.004;2022-09-09T07:38:42;25.08;49.25
65419;DHT22;52027;50.658;14.004;2022-09-09T07:41:14;25.11;49.18
65419;DHT22;52027;50.658;14.004;2022-09-09T07:43:43;25.12;49.12
65419;DHT22;52027;50.658;14.004;2022-09-09T07:46:10;25.15;49.01
65419;DHT22;52027;50.658;14.004;2022-09-09T07:48:37;25.15;49.24
65419;DHT22;52027;50.658;14.004;2022-09-09T07:51:14;25.19;49.32
65419;DHT22;52027;50.658;14.004;2022-09-09T07:53:44;25.18;49.23
65419;DHT22;52027;50.658;14.004;2022-09-09T07:56:12;25.23;49.33
65419;DHT22;52027;50.658;14.004;2022-09-09T07:58:40;25.25;49.35
65419;DHT22;52027;50.658;14.004;2022-09-09T08:01:14;25.28;49.24
65419;DHT22;52027;50.658;14.004;2022-09-09T08:03:42;25.29;49.27
65419;DHT22;52027;50.658;14.004;2022-09-09T08:06:08;25.33;48.96
65419;DHT22;52027;50.658;14.004;2022-09-09T08:08:35;25.33;49.08
65419;DHT22;52027;50.658;14.004;2022-09-09T08:11:06;25.35;49.00
65419;DHT22;52027;50.658;14.004;2022-09-09T08:13:34;25.40;48.94
65419;DHT22;52027;50.658;14.004;2022-09-09T08:16:22;25.42;49.03
65419;DHT22;52027;50.658;14.004;2022-09-09T08:18:49;25.40;48.96
65419;DHT22;52027;50.658;14.004;2022-09-09T08:21:20;25.42;49.02
65419;DHT22;52027;50.658;14.004;2022-09-09T08:23:51;25.45;48.98
65419;DHT22;52027;50.658;14.004;2022-09-09T08:26:22;25.46;48.90
65419;DHT22;52027;50.658;14.004;2022-09-09T08:28:52;25.43;48.85
65419;DHT22;52027;50.658;14.004;2022-09-09T08:31:23;25.46;48.83
65419;DHT22;52027;50.658;14.004;2022-09-09T08:33:49;25.46;48.72
65419;DHT22;52027;50.658;14.004;2022-09-09T08:36:18;25.46;48.72
65419;DHT22;52027;50.658;14.004;2022-09-09T08:38:47;25.47;48.91
65419;DHT22;52027;50.658;14.004;2022-09-09T08:52:30;25.47;48.51
65419;DHT22;52027;50.658;14.004;2022-09-09T08:55:33;25.47;48.55
65419;DHT22;52027;50.658;14.004;2022-09-09T08:58:41;25.49;48.59
65419;DHT22;52027;50.658;14.004;2022-09-09T09:09:20;25.50;48.72
65419;DHT22;52027;50.658;14.004;2022-09-09T09:11:53;25.57;48.69
65419;DHT22;52027;50.658;14.004;2022-09-09T09:14:20;25.56;48.66
65419;DHT22;52027;50.658;14.004;2022-09-09T09:16:58;25.56;48.61
65419;DHT22;52027;50.658;14.004;2022-09-09T09:19:24;25.59;48.64
65419;DHT22;52027;50.658;14.004;2022-09-09T09:24:30;25.60;48.59
65419;DHT22;52027;50.658;14.004;2022-09-09T09:27:12;25.66;48.44
65419;DHT22;52027;50.658;14.004;2022-09-09T09:29:39;25.63;48.47
65419;DHT22;52027;50.658;14.004;2022-09-09T09:32:07;25.66;48.52
65419;DHT22;52027;50.658;14.004;2022-09-09T09:34:35;25.66;48.56
65419;DHT22;52027;50.658;14.004;2022-09-09T09:37:01;25.70;48.32
65419;DHT22;52027;50.658;14.004;2022-09-09T09:39:31;25.73;47.98
65419;DHT22;52027;50.658;14.004;2022-09-09T09:42:16;25.78;47.91
65419;DHT22;52027;50.658;14.004;2022-09-09T09:44:43;25.81;48.00
65419;DHT22;52027;50.658;14.004;2022-09-09T09:47:22;25.84;47.86
65419;DHT22;52027;50.658;14.004;2022-09-09T09:52:22;25.90;47.51
65419;DHT22;52027;50.658;14.004;2022-09-09T09:54:49;25.94;47.69
65419;DHT22;52027;50.658;14.004;2022-09-09T09:57:16;25.95;47.59
65419;DHT22;52027;50.658;14.004;2022-09-09T09:59:42;26.01;47.06
65419;DHT22;52027;50.658;14.004;2022-09-09T10:02:17;26.00;46.83
65419;DHT22;52027;50.658;14.004;2022-09-09T10:04:43;26.02;46.97
65419;DHT22;52027;50.658;14.004;2022-09-09T10:07:20;26.05;46.99
65419;DHT22;52027;50.658;14.004;2022-09-09T10:09:50;26.06;46.91
65419;DHT22;52027;50.658;14.004;2022-09-09T10:20:40;26.09;46.70
65419;DHT22;52027;50.658;14.004;2022-09-09T10:26:07;26.06;46.58
65419;DHT22;52027;50.658;14.004;2022-09-09T10:31:24;26.06;46.54
65419;DHT22;52027;50.658;14.004;2022-09-09T10:34:05;26.04;46.70
65419;DHT22;52027;50.658;14.004;2022-09-09T10:36:42;26.04;46.92
65419;DHT22;52027;50.658;14.004;2022-09-09T10:42:09;26.06;46.74
65419;DHT22;52027;50.658;14.004;2022-09-09T10:47:59;26.06;46.75
65419;DHT22;52027;50.658;14.004;2022-09-09T10:55:43;26.09;46.90
65419;DHT22;52027;50.658;14.004;2022-09-09T10:58:31;26.09;46.83
65419;DHT22;52027;50.658;14.004;2022-09-09T11:01:06;26.14;46.83
65419;DHT22;52027;50.658;14.004;2022-09-09T11:03:35;26.17;46.90
65419;DHT22;52027;50.658;14.004;2022-09-09T11:06:06;26.18;46.92
65419;DHT22;52027;50.658;14.004;2022-09-09T11:08:38;26.20;46.84
65419;DHT22;52027;50.658;14.004;2022-09-09T11:11:21;26.20;46.85
65419;DHT22;52027;50.658;14.004;2022-09-09T11:16:29;26.24;46.81
65419;DHT22;52027;50.658;14.004;2022-09-09T11:21:46;26.29;46.69
65419;DHT22;52027;50.658;14.004;2022-09-09T11:24:20;26.36;46.62
65419;DHT22;52027;50.658;14.004;2022-09-09T11:26:54;26.42;46.52
65419;DHT22;52027;50.658;14.004;2022-09-09T11:38:06;26.63;46.04
65419;DHT22;52027;50.658;14.004;2022-09-09T11:40:34;26.66;45.91
65419;DHT22;52027;50.658;14.004;2022-09-09T11:45:31;26.73;45.75
65419;DHT22;52027;50.658;14.004;2022-09-09T11:48:00;26.77;45.60
65419;DHT22;52027;50.658;14.004;2022-09-09T11:53:23;26.84;45.25
65419;DHT22;52027;50.658;14.004;2022-09-09T11:56:00;26.86;45.25
65419;DHT22;52027;50.658;14.004;2022-09-09T11:58:26;26.86;45.64
65419;DHT22;52027;50.658;14.004;2022-09-09T12:00:53;26.84;45.75
65419;DHT22;52027;50.658;14.004;2022-09-09T12:08:36;26.90;45.54
65419;DHT22;52027;50.658;14.004;2022-09-09T12:11:02;26.93;45.21
65419;DHT22;52027;50.658;14.004;2022-09-09T12:13:29;26.94;44.96
65419;DHT22;52027;50.658;14.004;2022-09-09T12:15:58;26.98;44.91
65419;DHT22;52027;50.658;14.004;2022-09-09T12:18:32;27.01;44.71
65419;DHT22;52027;50.658;14.004;2022-09-09T12:23:52;27.08;44.04
65419;DHT22;52027;50.658;14.004;2022-09-09T12:26:36;27.14;44.22
65419;DHT22;52027;50.658;14.004;2022-09-09T12:29:19;27.12;44.79
65419;DHT22;52027;50.658;14.004;2022-09-09T12:32:06;27.07;44.69
65419;DHT22;52027;50.658;14.004;2022-09-09T12:34:42;27.10;44.63
65419;DHT22;52027;50.658;14.004;2022-09-09T12:39:56;27.08;44.23
65419;DHT22;52027;50.658;14.004;2022-09-09T12:42:23;27.08;43.69
65419;DHT22;52027;50.658;14.004;2022-09-09T12:44:57;27.08;43.65
65419;DHT22;52027;50.658;14.004;2022-09-09T12:47:35;27.07;43.17
65419;DHT22;52027;50.658;14.004;2022-09-09T12:50:02;27.14;42.82
65419;DHT22;52027;50.658;14.004;2022-09-09T12:52:35;27.14;42.48
65419;DHT22;52027;50.658;14.004;2022-09-09T12:55:05;27.17;42.43
65419;DHT22;52027;50.658;14.004;2022-09-09T12:57:39;27.18;42.69
65419;DHT22;52027;50.658;14.004;2022-09-09T13:00:18;27.18;42.62
65419;DHT22;52027;50.658;14.004;2022-09-09T13:02:52;27.20;42.86
65419;DHT22;52027;50.658;14.004;2022-09-09T13:05:28;27.17;43.12
65419;DHT22;52027;50.658;14.004;2022-09-09T13:08:04;27.17;43.47
65419;DHT22;52027;50.658;14.004;2022-09-09T13:10:34;27.14;43.59
65419;DHT22;52027;50.658;14.004;2022-09-09T13:13:01;27.17;43.60
65419;DHT22;52027;50.658;14.004;2022-09-09T13:15:28;27.15;43.75
65419;DHT22;52027;50.658;14.004;2022-09-09T13:17:57;27.17;43.83
65419;DHT22;52027;50.658;14.004;2022-09-09T13:20:23;27.18;43.76
65419;DHT22;52027;50.658;14.004;2022-09-09T13:22:50;27.21;43.85
65419;DHT22;52027;50.658;14.004;2022-09-09T13:25:19;27.23;44.18
65419;DHT22;52027;50.658;14.004;2022-09-09T13:27:54;27.25;44.08
65419;DHT22;52027;50.658;14.004;2022-09-09T13:30:21;27.27;44.00
65419;DHT22;52027;50.658;14.004;2022-09-09T13:32:59;27.27;44.21
65419;DHT22;52027;50.658;14.004;2022-09-09T13:35:26;27.25;43.85
65419;DHT22;52027;50.658;14.004;2022-09-09T13:37:51;27.27;43.81
65419;DHT22;52027;50.658;14.004;2022-09-09T13:40:19;27.30;43.95
65419;DHT22;52027;50.658;14.004;2022-09-09T13:42:45;27.33;43.98
65419;DHT22;52027;50.658;14.004;2022-09-09T13:45:25;27.30;44.04
65419;DHT22;52027;50.658;14.004;2022-09-09T13:47:53;27.30;44.10
65419;DHT22;52027;50.658;14.004;2022-09-09T13:52:52;27.28;44.04
65419;DHT22;52027;50.658;14.004;2022-09-09T13:55:20;27.25;44.11
65419;DHT22;52027;50.658;14.004;2022-09-09T13:57:54;27.30;44.15
65419;DHT22;52027;50.658;14.004;2022-09-09T14:00:21;27.25;44.22
65419;DHT22;52027;50.658;14.004;2022-09-09T14:02:48;27.24;44.26
65419;DHT22;52027;50.658;14.004;2022-09-09T14:05:13;27.24;44.29
65419;DHT22;52027;50.658;14.004;2022-09-09T14:07:41;27.20;44.29
65419;DHT22;52027;50.658;14.004;2022-09-09T14:10:08;27.21;44.34
65419;DHT22;52027;50.658;14.004;2022-09-09T14:12:33;27.21;44.43
65419;DHT22;52027;50.658;14.004;2022-09-09T14:14:58;27.21;44.43
65419;DHT22;52027;50.658;14.004;2022-09-09T14:17:25;27.20;44.47
65419;DHT22;52027;50.658;14.004;2022-09-09T14:19:54;27.21;44.47
65419;DHT22;52027;50.658;14.004;2022-09-09T14:22:20;27.20;44.49
65419;DHT22;52027;50.658;14.004;2022-09-09T14:24:45;27.20;44.53
65419;DHT22;52027;50.658;14.004;2022-09-09T14:27:11;27.23;44.57
65419;DHT22;52027;50.658;14.004;2022-09-09T14:29:36;27.21;44.48
65419;DHT22;52027;50.658;14.004;2022-09-09T14:32:02;27.24;44.42
65419;DHT22;52027;50.658;14.004;2022-09-09T14:34:27;27.23;44.45
65419;DHT22;52027;50.658;14.004;2022-09-09T14:36:52;27.24;44.41
65419;DHT22;52027;50.658;14.004;2022-09-09T14:39:18;27.24;44.43
65419;DHT22;52027;50.658;14.004;2022-09-09T14:41:43;27.24;44.41
65419;DHT22;52027;50.658;14.004;2022-09-09T14:44:08;27.25;44.44
65419;DHT22;52027;50.658;14.004;2022-09-09T14:46:35;27.27;44.40
65419;DHT22;52027;50.658;14.004;2022-09-09T14:49:00;27.27;44.44
65419;DHT22;52027;50.658;14.004;2022-09-09T14:51:26;27.24;44.40
65419;DHT22;52027;50.658;14.004;2022-09-09T14:53:55;27.30;44.38
65419;DHT22;52027;50.658;14.004;2022-09-09T14:56:25;27.25;44.35
65419;DHT22;52027;50.658;14.004;2022-09-09T14:58:53;27.28;44.32
65419;DHT22;52027;50.658;14.004;2022-09-09T15:01:20;27.28;44.31
65419;DHT22;52027;50.658;14.004;2022-09-09T15:03:52;27.28;44.33
65419;DHT22;52027;50.658;14.004;2022-09-09T15:06:18;27.27;44.36
65419;DHT22;52027;50.658;14.004;2022-09-09T15:08:45;27.27;44.36
65419;DHT22;52027;50.658;14.004;2022-09-09T15:11:12;27.28;44.36
65419;DHT22;52027;50.658;14.004;2022-09-09T15:13:40;27.27;44.40
65419;DHT22;52027;50.658;14.004;2022-09-09T15:16:06;27.24;44.39
65419;DHT22;52027;50.658;14.004;2022-09-09T15:18:33;27.27;44.40
65419;DHT22;52027;50.658;14.004;2022-09-09T15:21:03;27.24;44.37
65419;DHT22;52027;50.658;14.004;2022-09-09T15:23:31;27.25;44.40
65419;DHT22;52027;50.658;14.004;2022-09-09T15:25:57;27.24;44.34
65419;DHT22;52027;50.658;14.004;2022-09-09T15:28:22;27.23;44.34
65419;DHT22;52027;50.658;14.004;2022-09-09T15:30:52;27.20;44.34
65419;DHT22;52027;50.658;14.004;2022-09-09T15:33:19;27.18;44.32
65419;DHT22;52027;50.658;14.004;2022-09-09T15:35:45;27.17;44.35
65419;DHT22;52027;50.658;14.004;2022-09-09T15:38:10;27.15;44.36
65419;DHT22;52027;50.658;14.004;2022-09-09T15:40:38;27.11;44.32
65419;DHT22;52027;50.658;14.004;2022-09-09T15:43:05;27.11;44.36
65419;DHT22;52027;50.658;14.004;2022-09-09T15:45:31;27.11;44.27
65419;DHT22;52027;50.658;14.004;2022-09-09T15:47:57;27.10;44.30
65419;DHT22;52027;50.658;14.004;2022-09-09T15:50:23;27.06;44.23
65419;DHT22;52027;50.658;14.004;2022-09-09T15:52:48;27.06;44.21
65419;DHT22;52027;50.658;14.004;2022-09-09T15:55:13;27.04;44.27
65419;DHT22;52027;50.658;14.004;2022-09-09T15:57:39;27.01;44.30
65419;DHT22;52027;50.658;14.004;2022-09-09T16:00:06;27.00;44.23
65419;DHT22;52027;50.658;14.004;2022-09-09T16:02:32;26.98;44.29
65419;DHT22;52027;50.658;14.004;2022-09-09T16:04:58;26.98;44.29
65419;DHT22;52027;50.658;14.004;2022-09-09T16:07:23;26.96;44.31
65419;DHT22;52027;50.658;14.004;2022-09-09T16:09:48;26.96;44.28
65419;DHT22;52027;50.658;14.004;2022-09-09T16:12:16;26.93;44.40
65419;DHT22;52027;50.658;14.004;2022-09-09T16:14:42;26.93;44.29
65419;DHT22;52027;50.658;14.004;2022-09-09T16:17:07;26.87;44.30
65419;DHT22;52027;50.658;14.004;2022-09-09T16:19:33;26.86;44.31
65419;DHT22;52027;50.658;14.004;2022-09-09T16:22:00;26.86;44.34
65419;DHT22;52027;50.658;14.004;2022-09-09T16:24:25;26.84;44.45
65419;DHT22;52027;50.658;14.004;2022-09-09T16:26:53;26.82;44.47
65419;DHT22;52027;50.658;14.004;2022-09-09T16:29:20;26.82;44.36
65419;DHT22;52027;50.658;14.004;2022-09-09T16:31:47;26.82;44.45
65419;DHT22;52027;50.658;14.004;2022-09-09T16:34:14;26.79;44.49
65419;DHT22;52027;50.658;14.004;2022-09-09T16:36:41;26.79;44.48
65419;DHT22;52027;50.658;14.004;2022-09-09T16:39:15;26.77;44.48
65419;DHT22;52027;50.658;14.004;2022-09-09T16:41:42;26.76;44.50
65419;DHT22;52027;50.658;14.004;2022-09-09T16:44:10;26.76;44.50
65419;DHT22;52027;50.658;14.004;2022-09-09T16:46:38;26.73;44.56
65419;DHT22;52027;50.658;14.004;2022-09-09T16:49:06;26.70;44.59
65419;DHT22;52027;50.658;14.004;2022-09-09T16:51:43;26.72;44.65
65419;DHT22;52027;50.658;14.004;2022-09-09T16:54:09;26.72;44.62
65419;DHT22;52027;50.658;14.004;2022-09-09T16:56:38;26.69;44.63
65419;DHT22;52027;50.658;14.004;2022-09-09T16:59:08;26.72;44.72
65419;DHT22;52027;50.658;14.004;2022-09-09T17:01:35;26.70;44.68
65419;DHT22;52027;50.658;14.004;2022-09-09T17:04:07;26.68;44.68
65419;DHT22;52027;50.658;14.004;2022-09-09T17:06:34;26.68;44.78
65419;DHT22;52027;50.658;14.004;2022-09-09T17:09:02;26.66;44.76
65419;DHT22;52027;50.658;14.004;2022-09-09T17:11:28;26.64;44.76
65419;DHT22;52027;50.658;14.004;2022-09-09T17:13:55;26.63;44.80
65419;DHT22;52027;50.658;14.004;2022-09-09T17:16:23;26.64;44.82
65419;DHT22;52027;50.658;14.004;2022-09-09T17:18:50;26.62;44.83
65419;DHT22;52027;50.658;14.004;2022-09-09T17:21:18;26.62;44.86
65419;DHT22;52027;50.658;14.004;2022-09-09T17:23:44;26.60;44.81
65419;DHT22;52027;50.658;14.004;2022-09-09T17:26:13;26.59;44.85